sensor_id;sensor_type;location;lat;lon;timestamp;P1;durP1;ratioP1;P2;durP2;ratioP2
8825;SDS011;4449;50.872;4.714;2023-04-28T00:01:10;21.03;;;13.30;;
8825;SDS011;4449;50.872;4.714;2023-04-28T00:03:37;28.03;;;14.63;;
8825;SDS011;4449;50.872;4.714;2023-04-28T00:06:05;21.73;;;12.70;;
8825;SDS011;4449;50.872;4.714;2023-04-28T00:08:34;21.70;;;13.17;;
8825;SDS011;4449;50.872;4.714;2023-04-28T00:11:02;21.07;;;13.17;;
8825;SDS011;4449;50.872;4.714;2023-04-28T00:13:33;28.63;;;14.33;;
8825;SDS011;4449;50.872;4.714;2023-04-28T00:16:00;21.10;;;14.13;;
8825;SDS011;4449;50.872;4.714;2023-04-28T00:18:28;23.03;;;14.07;;
8825;SDS011;4449;50.872;4.714;2023-04-28T00:20:57;26.40;;;14.50;;
8825;SDS011;4449;50.872;4.714;2023-04-28T00:23:25;21.50;;;13.87;;
8825;SDS011;4449;50.872;4.714;2023-04-28T00:25:55;28.13;;;14.83;;
8825;SDS011;4449;50.872;4.714;2023-04-28T00:28:23;24.43;;;15.53;;
8825;SDS011;4449;50.872;4.714;2023-04-28T00:30:50;24.03;;;14.70;;
8825;SDS011;4449;50.872;4.714;2023-04-28T00:33:18;20.27;;;14.27;;
8825;SDS011;4449;50.872;4.714;2023-04-28T00:35:46;28.83;;;16.10;;
8825;SDS011;4449;50.872;4.714;2023-04-28T00:38:13;24.63;;;15.73;;
8825;SDS011;4449;50.872;4.714;2023-04-28T00:40:41;25.80;;;15.67;;
8825;SDS011;4449;50.872;4.714;2023-04-28T00:43:10;22.53;;;15.10;;
8825;SDS011;4449;50.872;4.714;2023-04-28T00:45:38;26.07;;;17.23;;
8825;SDS011;4449;50.872;4.714;2023-04-28T00:48:06;24.10;;;15.97;;
8825;SDS011;4449;50.872;4.714;2023-04-28T00:50:34;27.87;;;16.63;;
8825;SDS011;4449;50.872;4.714;2023-04-28T00:53:01;22.97;;;15.13;;
8825;SDS011;4449;50.872;4.714;2023-04-28T00:55:29;24.50;;;14.83;;
8825;SDS011;4449;50.872;4.714;2023-04-28T00:57:58;25.47;;;16.23;;
8825;SDS011;4449;50.872;4.714;2023-04-28T01:00:27;27.27;;;16.03;;
8825;SDS011;4449;50.872;4.714;2023-04-28T01:02:55;24.17;;;16.90;;
8825;SDS011;4449;50.872;4.714;2023-04-28T01:05:24;25.33;;;16.57;;
8825;SDS011;4449;50.872;4.714;2023-04-28T01:07:52;25.67;;;16.70;;
8825;SDS011;4449;50.872;4.714;2023-04-28T01:10:20;22.20;;;15.77;;
8825;SDS011;4449;50.872;4.714;2023-04-28T01:12:48;28.00;;;16.43;;
8825;SDS011;4449;50.872;4.714;2023-04-28T01:15:16;28.83;;;17.37;;
8825;SDS011;4449;50.872;4.714;2023-04-28T01:17:46;24.57;;;16.37;;
8825;SDS011;4449;50.872;4.714;2023-04-28T01:20:13;28.77;;;17.80;;
8825;SDS011;4449;50.872;4.714;2023-04-28T01:22:42;26.33;;;16.37;;
8825;SDS011;4449;50.872;4.714;2023-04-28T01:25:11;31.07;;;17.20;;
8825;SDS011;4449;50.872;4.714;2023-04-28T01:27:39;27.73;;;16.93;;
8825;SDS011;4449;50.872;4.714;2023-04-28T01:30:07;24.53;;;15.73;;
8825;SDS011;4449;50.872;4.714;2023-04-28T01:32:35;22.13;;;15.87;;
8825;SDS011;4449;50.872;4.714;2023-04-28T01:35:03;26.07;;;16.23;;
8825;SDS011;4449;50.872;4.714;2023-04-28T01:37:31;26.90;;;15.87;;
8825;SDS011;4449;50.872;4.714;2023-04-28T01:39:59;22.77;;;16.33;;
8825;SDS011;4449;50.872;4.714;2023-04-28T01:42:28;25.80;;;16.00;;
8825;SDS011;4449;50.872;4.714;2023-04-28T01:44:56;25.77;;;16.43;;
8825;SDS011;4449;50.872;4.714;2023-04-28T01:47:24;26.10;;;16.40;;
8825;SDS011;4449;50.872;4.714;2023-04-28T01:49:51;21.97;;;15.87;;
8825;SDS011;4449;50.872;4.714;2023-04-28T01:52:19;23.13;;;15.67;;
8825;SDS011;4449;50.872;4.714;2023-04-28T01:54:48;25.20;;;15.77;;
8825;SDS011;4449;50.872;4.714;2023-04-28T01:57:16;22.67;;;15.80;;
8825;SDS011;4449;50.872;4.714;2023-04-28T01:59:45;22.37;;;15.67;;
8825;SDS011;4449;50.872;4.714;2023-04-28T02:02:13;28.83;;;15.97;;
8825;SDS011;4449;50.872;4.714;2023-04-28T02:04:41;27.03;;;16.50;;
8825;SDS011;4449;50.872;4.714;2023-04-28T02:07:08;27.33;;;16.50;;
8825;SDS011;4449;50.872;4.714;2023-04-28T02:09:36;26.40;;;16.83;;
8825;SDS011;4449;50.872;4.714;2023-04-28T02:12:04;24.70;;;16.53;;
8825;SDS011;4449;50.872;4.714;2023-04-28T02:14:32;22.50;;;15.50;;
8825;SDS011;4449;50.872;4.714;2023-04-28T02:17:01;22.37;;;15.17;;
8825;SDS011;4449;50.872;4.714;2023-04-28T02:19:29;24.57;;;16.70;;
8825;SDS011;4449;50.872;4.714;2023-04-28T02:21:57;23.37;;;15.60;;
8825;SDS011;4449;50.872;4.714;2023-04-28T02:24:25;21.73;;;15.27;;
8825;SDS011;4449;50.872;4.714;2023-04-28T02:26:53;24.30;;;16.27;;
8825;SDS011;4449;50.872;4.714;2023-04-28T02:29:21;28.30;;;17.77;;
8825;SDS011;4449;50.872;4.714;2023-04-28T02:31:49;30.63;;;15.93;;
8825;SDS011;4449;50.872;4.714;2023-04-28T02:34:18;26.73;;;16.17;;
8825;SDS011;4449;50.872;4.714;2023-04-28T02:36:46;27.80;;;16.93;;
8825;SDS011;4449;50.872;4.714;2023-04-28T02:39:14;27.43;;;16.90;;
8825;SDS011;4449;50.872;4.714;2023-04-28T02:41:42;25.70;;;16.47;;
8825;SDS011;4449;50.872;4.714;2023-04-28T02:44:10;24.73;;;16.70;;
8825;SDS011;4449;50.872;4.714;2023-04-28T02:46:37;26.13;;;17.00;;
8825;SDS011;4449;50.872;4.714;2023-04-28T02:49:05;27.83;;;18.40;;
8825;SDS011;4449;50.872;4.714;2023-04-28T02:51:34;25.63;;;16.40;;
8825;SDS011;4449;50.872;4.714;2023-04-28T02:54:02;25.47;;;15.63;;
8825;SDS011;4449;50.872;4.714;2023-04-28T02:56:30;26.27;;;15.80;;
8825;SDS011;4449;50.872;4.714;2023-04-28T02:58:58;25.63;;;16.70;;
8825;SDS011;4449;50.872;4.714;2023-04-28T03:01:26;24.63;;;16.30;;
8825;SDS011;4449;50.872;4.714;2023-04-28T03:03:53;27.83;;;15.50;;
8825;SDS011;4449;50.872;4.714;2023-04-28T03:06:21;22.97;;;15.57;;
8825;SDS011;4449;50.872;4.714;2023-04-28T03:08:50;28.75;;;20.10;;
8825;SDS011;4449;50.872;4.714;2023-04-28T03:11:18;25.25;;;18.75;;
8825;SDS011;4449;50.872;4.714;2023-04-28T03:13:46;24.48;;;19.20;;
8825;SDS011;4449;50.872;4.714;2023-04-28T03:16:13;23.75;;;18.95;;
8825;SDS011;4449;50.872;4.714;2023-04-28T03:18:41;24.17;;;18.87;;
8825;SDS011;4449;50.872;4.714;2023-04-28T03:21:09;24.02;;;19.30;;
8825;SDS011;4449;50.872;4.714;2023-04-28T03:23:36;26.23;;;19.67;;
8825;SDS011;4449;50.872;4.714;2023-04-28T03:26:08;26.90;;;21.08;;
8825;SDS011;4449;50.872;4.714;2023-04-28T03:28:36;29.33;;;19.92;;
8825;SDS011;4449;50.872;4.714;2023-04-28T03:31:04;25.42;;;18.63;;
8825;SDS011;4449;50.872;4.714;2023-04-28T03:33:31;23.33;;;18.75;;
8825;SDS011;4449;50.872;4.714;2023-04-28T03:35:59;25.17;;;19.00;;
8825;SDS011;4449;50.872;4.714;2023-04-28T03:38:27;25.38;;;20.13;;
8825;SDS011;4449;50.872;4.714;2023-04-28T03:40:54;27.73;;;20.40;;
8825;SDS011;4449;50.872;4.714;2023-04-28T03:43:24;27.63;;;20.67;;
8825;SDS011;4449;50.872;4.714;2023-04-28T03:45:51;26.35;;;20.60;;
8825;SDS011;4449;50.872;4.714;2023-04-28T03:48:19;27.40;;;19.92;;
8825;SDS011;4449;50.872;4.714;2023-04-28T03:50:47;28.42;;;20.83;;
8825;SDS011;4449;50.872;4.714;2023-04-28T03:53:15;29.45;;;20.27;;
8825;SDS011;4449;50.872;4.714;2023-04-28T03:55:43;27.33;;;20.00;;
8825;SDS011;4449;50.872;4.714;2023-04-28T03:58:11;26.90;;;20.50;;
8825;SDS011;4449;50.872;4.714;2023-04-28T04:00:40;27.10;;;20.48;;
8825;SDS011;4449;50.872;4.714;2023-04-28T04:03:08;26.63;;;20.90;;
8825;SDS011;4449;50.872;4.714;2023-04-28T04:05:35;26.35;;;20.25;;
8825;SDS011;4449;50.872;4.714;2023-04-28T04:08:03;25.45;;;20.45;;
8825;SDS011;4449;50.872;4.714;2023-04-28T04:10:31;25.80;;;20.83;;
8825;SDS011;4449;50.872;4.714;2023-04-28T04:12:59;28.27;;;21.02;;
8825;SDS011;4449;50.872;4.714;2023-04-28T04:15:27;31.23;;;22.67;;
8825;SDS011;4449;50.872;4.714;2023-04-28T04:17:56;29.13;;;21.42;;
8825;SDS011;4449;50.872;4.714;2023-04-28T04:20:24;31.20;;;21.97;;
8825;SDS011;4449;50.872;4.714;2023-04-28T04:22:52;29.70;;;21.30;;
8825;SDS011;4449;50.872;4.714;2023-04-28T04:25:20;30.38;;;22.55;;
8825;SDS011;4449;50.872;4.714;2023-04-28T04:27:47;31.05;;;22.90;;
8825;SDS011;4449;50.872;4.714;2023-04-28T04:30:15;29.02;;;22.67;;
8825;SDS011;4449;50.872;4.714;2023-04-28T04:32:43;30.95;;;23.10;;
8825;SDS011;4449;50.872;4.714;2023-04-28T04:35:12;33.63;;;23.02;;
8825;SDS011;4449;50.872;4.714;2023-04-28T04:37:40;28.90;;;21.73;;
8825;SDS011;4449;50.872;4.714;2023-04-28T04:40:08;28.05;;;21.98;;
8825;SDS011;4449;50.872;4.714;2023-04-28T04:42:36;28.75;;;22.58;;
8825;SDS011;4449;50.872;4.714;2023-04-28T04:45:04;27.35;;;21.05;;
8825;SDS011;4449;50.872;4.714;2023-04-28T04:47:32;30.73;;;22.02;;
8825;SDS011;4449;50.872;4.714;2023-04-28T04:50:00;27.60;;;21.65;;
8825;SDS011;4449;50.872;4.714;2023-04-28T04:52:29;29.05;;;22.05;;
8825;SDS011;4449;50.872;4.714;2023-04-28T04:54:57;31.45;;;21.83;;
8825;SDS011;4449;50.872;4.714;2023-04-28T04:57:25;27.17;;;21.52;;
8825;SDS011;4449;50.872;4.714;2023-04-28T04:59:52;31.92;;;22.92;;
8825;SDS011;4449;50.872;4.714;2023-04-28T05:02:20;30.65;;;23.15;;
8825;SDS011;4449;50.872;4.714;2023-04-28T05:04:48;30.38;;;22.30;;
8825;SDS011;4449;50.872;4.714;2023-04-28T05:07:16;30.38;;;22.95;;
8825;SDS011;4449;50.872;4.714;2023-04-28T05:09:45;28.50;;;22.73;;
8825;SDS011;4449;50.872;4.714;2023-04-28T05:12:13;30.15;;;22.65;;
8825;SDS011;4449;50.872;4.714;2023-04-28T05:14:40;30.95;;;23.20;;
8825;SDS011;4449;50.872;4.714;2023-04-28T05:17:08;29.98;;;23.20;;
8825;SDS011;4449;50.872;4.714;2023-04-28T05:19:36;29.33;;;22.10;;
8825;SDS011;4449;50.872;4.714;2023-04-28T05:22:04;33.47;;;24.50;;
8825;SDS011;4449;50.872;4.714;2023-04-28T05:24:32;31.65;;;23.00;;
8825;SDS011;4449;50.872;4.714;2023-04-28T05:27:01;30.17;;;23.23;;
8825;SDS011;4449;50.872;4.714;2023-04-28T05:29:29;29.02;;;22.77;;
8825;SDS011;4449;50.872;4.714;2023-04-28T05:31:57;33.67;;;23.60;;
8825;SDS011;4449;50.872;4.714;2023-04-28T05:34:24;29.98;;;22.65;;
8825;SDS011;4449;50.872;4.714;2023-04-28T05:36:52;29.98;;;24.13;;
8825;SDS011;4449;50.872;4.714;2023-04-28T05:39:20;30.08;;;22.15;;
8825;SDS011;4449;50.872;4.714;2023-04-28T05:41:47;31.15;;;22.38;;
8825;SDS011;4449;50.872;4.714;2023-04-28T05:44:17;30.90;;;23.08;;
8825;SDS011;4449;50.872;4.714;2023-04-28T05:46:44;29.38;;;23.40;;
8825;SDS011;4449;50.872;4.714;2023-04-28T05:49:12;31.10;;;22.75;;
8825;SDS011;4449;50.872;4.714;2023-04-28T05:51:40;29.60;;;23.13;;
8825;SDS011;4449;50.872;4.714;2023-04-28T05:54:08;33.03;;;22.80;;
8825;SDS011;4449;50.872;4.714;2023-04-28T05:56:36;31.58;;;22.70;;
8825;SDS011;4449;50.872;4.714;2023-04-28T05:59:04;30.27;;;22.50;;
8825;SDS011;4449;50.872;4.714;2023-04-28T06:01:33;30.15;;;22.08;;
8825;SDS011;4449;50.872;4.714;2023-04-28T06:04:03;29.92;;;23.42;;
8825;SDS011;4449;50.872;4.714;2023-04-28T06:06:30;31.40;;;23.25;;
8825;SDS011;4449;50.872;4.714;2023-04-28T06:08:58;30.45;;;22.65;;
8825;SDS011;4449;50.872;4.714;2023-04-28T06:11:26;33.47;;;24.40;;
8825;SDS011;4449;50.872;4.714;2023-04-28T06:13:54;32.30;;;23.60;;
8825;SDS011;4449;50.872;4.714;2023-04-28T06:16:22;34.85;;;24.15;;
8825;SDS011;4449;50.872;4.714;2023-04-28T06:18:51;31.50;;;23.73;;
8825;SDS011;4449;50.872;4.714;2023-04-28T06:21:19;34.17;;;24.60;;
8825;SDS011;4449;50.872;4.714;2023-04-28T06:23:46;33.65;;;23.77;;
8825;SDS011;4449;50.872;4.714;2023-04-28T06:26:14;39.88;;;25.70;;
8825;SDS011;4449;50.872;4.714;2023-04-28T06:28:42;34.15;;;24.92;;
8825;SDS011;4449;50.872;4.714;2023-04-28T06:31:10;36.15;;;25.00;;
8825;SDS011;4449;50.872;4.714;2023-04-28T06:33:38;31.15;;;22.67;;
8825;SDS011;4449;50.872;4.714;2023-04-28T06:36:07;26.50;;;19.23;;
8825;SDS011;4449;50.872;4.714;2023-04-28T06:38:38;25.47;;;18.63;;
8825;SDS011;4449;50.872;4.714;2023-04-28T06:41:07;25.83;;;18.90;;
8825;SDS011;4449;50.872;4.714;2023-04-28T06:43:34;25.60;;;17.47;;
8825;SDS011;4449;50.872;4.714;2023-04-28T06:46:02;28.97;;;18.03;;
8825;SDS011;4449;50.872;4.714;2023-04-28T06:48:30;26.63;;;18.67;;
8825;SDS011;4449;50.872;4.714;2023-04-28T06:50:57;26.60;;;17.50;;
8825;SDS011;4449;50.872;4.714;2023-04-28T06:53:26;26.37;;;17.17;;
8825;SDS011;4449;50.872;4.714;2023-04-28T06:55:54;32.65;;;23.30;;
8825;SDS011;4449;50.872;4.714;2023-04-28T06:58:22;31.75;;;22.05;;
8825;SDS011;4449;50.872;4.714;2023-04-28T07:00:50;29.13;;;20.17;;
8825;SDS011;4449;50.872;4.714;2023-04-28T07:03:18;29.83;;;21.63;;
8825;SDS011;4449;50.872;4.714;2023-04-28T07:05:45;29.23;;;20.67;;
8825;SDS011;4449;50.872;4.714;2023-04-28T07:08:13;28.58;;;21.27;;
8825;SDS011;4449;50.872;4.714;2023-04-28T07:10:43;25.77;;;20.00;;
8825;SDS011;4449;50.872;4.714;2023-04-28T07:13:11;28.60;;;19.08;;
8825;SDS011;4449;50.872;4.714;2023-04-28T07:15:39;25.02;;;19.85;;
8825;SDS011;4449;50.872;4.714;2023-04-28T07:18:06;24.17;;;18.05;;
8825;SDS011;4449;50.872;4.714;2023-04-28T07:20:34;21.70;;;17.08;;
8825;SDS011;4449;50.872;4.714;2023-04-28T07:23:02;13.83;;;11.57;;
8825;SDS011;4449;50.872;4.714;2023-04-28T07:25:30;14.30;;;11.83;;
8825;SDS011;4449;50.872;4.714;2023-04-28T07:28:01;15.48;;;13.18;;
8825;SDS011;4449;50.872;4.714;2023-04-28T07:30:30;14.35;;;11.93;;
8825;SDS011;4449;50.872;4.714;2023-04-28T07:32:57;12.52;;;11.00;;
8825;SDS011;4449;50.872;4.714;2023-04-28T07:35:25;13.33;;;10.90;;
8825;SDS011;4449;50.872;4.714;2023-04-28T07:37:53;9.68;;;8.75;;
8825;SDS011;4449;50.872;4.714;2023-04-28T07:40:22;8.07;;;7.38;;
8825;SDS011;4449;50.872;4.714;2023-04-28T07:42:50;6.88;;;6.18;;
8825;SDS011;4449;50.872;4.714;2023-04-28T07:55:42;5.03;;;4.63;;
8825;SDS011;4449;50.872;4.714;2023-04-28T07:58:10;4.93;;;4.63;;
8825;SDS011;4449;50.872;4.714;2023-04-28T08:00:38;5.10;;;4.63;;
8825;SDS011;4449;50.872;4.714;2023-04-28T08:03:06;5.77;;;5.30;;
8825;SDS011;4449;50.872;4.714;2023-04-28T08:05:34;4.70;;;4.43;;
8825;SDS011;4449;50.872;4.714;2023-04-28T08:08:01;5.32;;;4.93;;
8825;SDS011;4449;50.872;4.714;2023-04-28T08:10:29;5.70;;;5.10;;
8825;SDS011;4449;50.872;4.714;2023-04-28T08:12:58;4.73;;;4.40;;
8825;SDS011;4449;50.872;4.714;2023-04-28T08:15:26;4.13;;;3.93;;
8825;SDS011;4449;50.872;4.714;2023-04-28T08:17:54;4.23;;;4.00;;
8825;SDS011;4449;50.872;4.714;2023-04-28T08:20:22;3.90;;;3.70;;
8825;SDS011;4449;50.872;4.714;2023-04-28T08:22:50;3.43;;;3.23;;
8825;SDS011;4449;50.872;4.714;2023-04-28T08:25:17;2.83;;;2.73;;
8825;SDS011;4449;50.872;4.714;2023-04-28T08:27:45;2.70;;;2.60;;
8825;SDS011;4449;50.872;4.714;2023-04-28T08:30:14;2.80;;;2.70;;
8825;SDS011;4449;50.872;4.714;2023-04-28T08:32:42;2.90;;;2.70;;
8825;SDS011;4449;50.872;4.714;2023-04-28T08:35:10;2.57;;;2.47;;
8825;SDS011;4449;50.872;4.714;2023-04-28T08:37:39;2.07;;;2.07;;
8825;SDS011;4449;50.872;4.714;2023-04-28T08:40:08;2.20;;;2.20;;
8825;SDS011;4449;50.872;4.714;2023-04-28T08:42:36;2.00;;;1.90;;
8825;SDS011;4449;50.872;4.714;2023-04-28T08:45:04;2.27;;;2.13;;
8825;SDS011;4449;50.872;4.714;2023-04-28T08:47:34;2.43;;;2.23;;
8825;SDS011;4449;50.872;4.714;2023-04-28T08:50:04;1.80;;;1.77;;
8825;SDS011;4449;50.872;4.714;2023-04-28T08:52:32;1.90;;;1.90;;
8825;SDS011;4449;50.872;4.714;2023-04-28T08:55:00;2.20;;;2.10;;
8825;SDS011;4449;50.872;4.714;2023-04-28T08:57:34;1.90;;;1.90;;
8825;SDS011;4449;50.872;4.714;2023-04-28T09:00:04;2.40;;;2.20;;
8825;SDS011;4449;50.872;4.714;2023-04-28T09:02:34;1.90;;;1.90;;
8825;SDS011;4449;50.872;4.714;2023-04-28T09:05:02;1.90;;;1.90;;
8825;SDS011;4449;50.872;4.714;2023-04-28T09:07:30;1.90;;;1.80;;
8825;SDS011;4449;50.872;4.714;2023-04-28T09:10:14;2.80;;;2.17;;
8825;SDS011;4449;50.872;4.714;2023-04-28T09:12:42;1.93;;;1.90;;
8825;SDS011;4449;50.872;4.714;2023-04-28T09:15:14;1.80;;;1.80;;
8825;SDS011;4449;50.872;4.714;2023-04-28T09:17:53;2.13;;;2.07;;
8825;SDS011;4449;50.872;4.714;2023-04-28T09:20:20;2.03;;;2.03;;
8825;SDS011;4449;50.872;4.714;2023-04-28T09:22:49;2.20;;;2.20;;
8825;SDS011;4449;50.872;4.714;2023-04-28T09:25:17;1.97;;;1.97;;
8825;SDS011;4449;50.872;4.714;2023-04-28T09:27:46;1.97;;;1.90;;
8825;SDS011;4449;50.872;4.714;2023-04-28T09:30:15;2.63;;;2.53;;
8825;SDS011;4449;50.872;4.714;2023-04-28T09:32:45;2.37;;;2.27;;
8825;SDS011;4449;50.872;4.714;2023-04-28T09:35:41;1.70;;;1.60;;
8825;SDS011;4449;50.872;4.714;2023-04-28T09:38:11;1.40;;;1.30;;
8825;SDS011;4449;50.872;4.714;2023-04-28T09:40:53;1.87;;;1.83;;
8825;SDS011;4449;50.872;4.714;2023-04-28T10:41:06;2.73;;;2.60;;
8825;SDS011;4449;50.872;4.714;2023-04-28T10:43:54;2.77;;;2.57;;
8825;SDS011;4449;50.872;4.714;2023-04-28T10:46:22;3.80;;;3.60;;
8825;SDS011;4449;50.872;4.714;2023-04-28T10:51:30;2.67;;;2.57;;
8825;SDS011;4449;50.872;4.714;2023-04-28T10:54:13;3.07;;;2.97;;
8825;SDS011;4449;50.872;4.714;2023-04-28T10:59:30;3.00;;;2.17;;
8825;SDS011;4449;50.872;4.714;2023-04-28T11:07:22;1.93;;;1.93;;
8825;SDS011;4449;50.872;4.714;2023-04-28T11:09:50;1.70;;;1.70;;
8825;SDS011;4449;50.872;4.714;2023-04-28T11:12:18;1.63;;;1.60;;
8825;SDS011;4449;50.872;4.714;2023-04-28T11:14:47;1.83;;;1.83;;
8825;SDS011;4449;50.872;4.714;2023-04-28T11:17:15;1.90;;;1.80;;
8825;SDS011;4449;50.872;4.714;2023-04-28T11:19:44;2.30;;;1.60;;
8825;SDS011;4449;50.872;4.714;2023-04-28T11:22:13;1.40;;;1.40;;
8825;SDS011;4449;50.872;4.714;2023-04-28T11:24:41;2.30;;;1.70;;
8825;SDS011;4449;50.872;4.714;2023-04-28T11:27:24;2.10;;;2.00;;
8825;SDS011;4449;50.872;4.714;2023-04-28T11:29:54;2.30;;;1.80;;
8825;SDS011;4449;50.872;4.714;2023-04-28T11:32:25;1.83;;;1.83;;
8825;SDS011;4449;50.872;4.714;2023-04-28T11:34:54;1.80;;;1.70;;
8825;SDS011;4449;50.872;4.714;2023-04-28T11:37:21;1.63;;;1.60;;
8825;SDS011;4449;50.872;4.714;2023-04-28T11:39:49;1.53;;;1.43;;
8825;SDS011;4449;50.872;4.714;2023-04-28T11:42:17;4.23;;;1.57;;
8825;SDS011;4449;50.872;4.714;2023-04-28T11:44:48;1.37;;;1.30;;
8825;SDS011;4449;50.872;4.714;2023-04-28T11:47:28;1.20;;;1.20;;
8825;SDS011;4449;50.872;4.714;2023-04-28T11:49:57;1.40;;;1.40;;
8825;SDS011;4449;50.872;4.714;2023-04-28T11:52:25;1.37;;;1.37;;
8825;SDS011;4449;50.872;4.714;2023-04-28T11:54:53;4.20;;;1.53;;
8825;SDS011;4449;50.872;4.714;2023-04-28T11:57:22;1.70;;;1.60;;
8825;SDS011;4449;50.872;4.714;2023-04-28T11:59:51;1.60;;;1.50;;
8825;SDS011;4449;50.872;4.714;2023-04-28T12:02:29;1.50;;;1.50;;
8825;SDS011;4449;50.872;4.714;2023-04-28T12:04:59;1.33;;;1.33;;
8825;SDS011;4449;50.872;4.714;2023-04-28T12:07:38;2.00;;;1.90;;
8825;SDS011;4449;50.872;4.714;2023-04-28T12:10:11;2.00;;;2.00;;
8825;SDS011;4449;50.872;4.714;2023-04-28T12:12:40;2.30;;;2.10;;
8825;SDS011;4449;50.872;4.714;2023-04-28T12:15:08;3.27;;;3.07;;
8825;SDS011;4449;50.872;4.714;2023-04-28T12:17:38;2.90;;;2.80;;
8825;SDS011;4449;50.872;4.714;2023-04-28T12:20:06;3.13;;;2.87;;
8825;SDS011;4449;50.872;4.714;2023-04-28T12:22:42;10.33;;;2.83;;
8825;SDS011;4449;50.872;4.714;2023-04-28T12:25:11;2.60;;;2.43;;
8825;SDS011;4449;50.872;4.714;2023-04-28T12:27:41;2.10;;;2.00;;
8825;SDS011;4449;50.872;4.714;2023-04-28T12:32:59;2.10;;;1.80;;
8825;SDS011;4449;50.872;4.714;2023-04-28T12:35:27;1.70;;;1.70;;
8825;SDS011;4449;50.872;4.714;2023-04-28T12:37:55;3.70;;;1.80;;
8825;SDS011;4449;50.872;4.714;2023-04-28T12:40:23;4.77;;;2.13;;
8825;SDS011;4449;50.872;4.714;2023-04-28T12:42:51;3.03;;;2.17;;
8825;SDS011;4449;50.872;4.714;2023-04-28T12:45:19;1.67;;;1.67;;
8825;SDS011;4449;50.872;4.714;2023-04-28T12:47:47;2.60;;;1.80;;
8825;SDS011;4449;50.872;4.714;2023-04-28T12:50:16;1.70;;;1.70;;
8825;SDS011;4449;50.872;4.714;2023-04-28T12:52:44;1.90;;;1.60;;
8825;SDS011;4449;50.872;4.714;2023-04-28T12:55:12;1.37;;;1.37;;
8825;SDS011;4449;50.872;4.714;2023-04-28T12:57:40;1.57;;;1.40;;
8825;SDS011;4449;50.872;4.714;2023-04-28T13:00:09;1.07;;;1.07;;
8825;SDS011;4449;50.872;4.714;2023-04-28T13:02:40;1.23;;;1.13;;
8825;SDS011;4449;50.872;4.714;2023-04-28T13:05:09;1.10;;;1.10;;
8825;SDS011;4449;50.872;4.714;2023-04-28T13:07:40;1.30;;;1.17;;
8825;SDS011;4449;50.872;4.714;2023-04-28T13:10:08;1.03;;;1.03;;
8825;SDS011;4449;50.872;4.714;2023-04-28T13:12:37;1.37;;;1.27;;
8825;SDS011;4449;50.872;4.714;2023-04-28T13:15:06;1.20;;;1.20;;
8825;SDS011;4449;50.872;4.714;2023-04-28T13:17:34;1.07;;;1.07;;
8825;SDS011;4449;50.872;4.714;2023-04-28T13:20:04;2.00;;;1.13;;
8825;SDS011;4449;50.872;4.714;2023-04-28T13:22:32;0.90;;;0.90;;
8825;SDS011;4449;50.872;4.714;2023-04-28T13:25:01;1.33;;;1.20;;
8825;SDS011;4449;50.872;4.714;2023-04-28T13:27:29;1.00;;;1.00;;
8825;SDS011;4449;50.872;4.714;2023-04-28T13:29:57;3.27;;;1.20;;
8825;SDS011;4449;50.872;4.714;2023-04-28T13:32:25;1.10;;;1.10;;
8825;SDS011;4449;50.872;4.714;2023-04-28T13:34:53;1.17;;;1.10;;
8825;SDS011;4449;50.872;4.714;2023-04-28T13:37:21;1.57;;;1.10;;
8825;SDS011;4449;50.872;4.714;2023-04-28T13:39:48;2.00;;;1.40;;
8825;SDS011;4449;50.872;4.714;2023-04-28T13:42:17;1.37;;;1.27;;
8825;SDS011;4449;50.872;4.714;2023-04-28T13:44:48;1.40;;;1.40;;
8825;SDS011;4449;50.872;4.714;2023-04-28T13:47:16;1.10;;;1.10;;
8825;SDS011;4449;50.872;4.714;2023-04-28T13:49:44;1.20;;;1.20;;
8825;SDS011;4449;50.872;4.714;2023-04-28T13:52:12;1.13;;;1.13;;
8825;SDS011;4449;50.872;4.714;2023-04-28T13:54:42;1.30;;;1.30;;
8825;SDS011;4449;50.872;4.714;2023-04-28T13:57:10;1.60;;;1.60;;
8825;SDS011;4449;50.872;4.714;2023-04-28T13:59:39;1.70;;;1.20;;
8825;SDS011;4449;50.872;4.714;2023-04-28T14:02:07;4.43;;;1.50;;
8825;SDS011;4449;50.872;4.714;2023-04-28T14:04:36;2.37;;;1.10;;
8825;SDS011;4449;50.872;4.714;2023-04-28T14:07:03;1.03;;;1.03;;
8825;SDS011;4449;50.872;4.714;2023-04-28T14:09:31;1.20;;;1.20;;
8825;SDS011;4449;50.872;4.714;2023-04-28T14:11:59;1.30;;;1.30;;
8825;SDS011;4449;50.872;4.714;2023-04-28T14:14:27;1.40;;;1.30;;
8825;SDS011;4449;50.872;4.714;2023-04-28T14:16:57;1.80;;;1.70;;
8825;SDS011;4449;50.872;4.714;2023-04-28T14:19:25;1.37;;;1.37;;
8825;SDS011;4449;50.872;4.714;2023-04-28T14:21:54;1.20;;;1.20;;
8825;SDS011;4449;50.872;4.714;2023-04-28T14:24:22;1.10;;;1.10;;
8825;SDS011;4449;50.872;4.714;2023-04-28T14:26:49;1.10;;;1.10;;
8825;SDS011;4449;50.872;4.714;2023-04-28T14:29:18;1.30;;;1.30;;
8825;SDS011;4449;50.872;4.714;2023-04-28T14:31:46;1.00;;;1.00;;
8825;SDS011;4449;50.872;4.714;2023-04-28T14:34:15;1.37;;;1.27;;
8825;SDS011;4449;50.872;4.714;2023-04-28T14:36:43;1.30;;;1.30;;
8825;SDS011;4449;50.872;4.714;2023-04-28T14:39:12;1.60;;;1.30;;
8825;SDS011;4449;50.872;4.714;2023-04-28T14:41:40;1.00;;;1.00;;
8825;SDS011;4449;50.872;4.714;2023-04-28T14:44:08;1.10;;;1.10;;
8825;SDS011;4449;50.872;4.714;2023-04-28T14:46:36;1.70;;;1.60;;
8825;SDS011;4449;50.872;4.714;2023-04-28T14:49:04;1.30;;;1.20;;
8825;SDS011;4449;50.872;4.714;2023-04-28T14:51:35;3.33;;;1.30;;
8825;SDS011;4449;50.872;4.714;2023-04-28T14:54:02;1.30;;;1.30;;
8825;SDS011;4449;50.872;4.714;2023-04-28T14:56:30;1.37;;;1.37;;
8825;SDS011;4449;50.872;4.714;2023-04-28T14:58:58;1.20;;;1.20;;
8825;SDS011;4449;50.872;4.714;2023-04-28T15:01:25;1.30;;;1.20;;
8825;SDS011;4449;50.872;4.714;2023-04-28T15:03:53;1.20;;;1.20;;
8825;SDS011;4449;50.872;4.714;2023-04-28T15:06:21;5.23;;;1.30;;
8825;SDS011;4449;50.872;4.714;2023-04-28T15:08:50;1.10;;;1.10;;
8825;SDS011;4449;50.872;4.714;2023-04-28T15:11:18;1.10;;;1.10;;
8825;SDS011;4449;50.872;4.714;2023-04-28T15:13:46;1.07;;;1.07;;
8825;SDS011;4449;50.872;4.714;2023-04-28T15:16:13;1.20;;;1.20;;
8825;SDS011;4449;50.872;4.714;2023-04-28T15:18:41;0.90;;;0.90;;
8825;SDS011;4449;50.872;4.714;2023-04-28T15:21:10;2.83;;;1.30;;
8825;SDS011;4449;50.872;4.714;2023-04-28T15:23:38;1.00;;;1.00;;
8825;SDS011;4449;50.872;4.714;2023-04-28T15:26:07;1.70;;;1.10;;
8825;SDS011;4449;50.872;4.714;2023-04-28T15:28:35;2.13;;;1.20;;
8825;SDS011;4449;50.872;4.714;2023-04-28T15:31:03;2.73;;;1.20;;
8825;SDS011;4449;50.872;4.714;2023-04-28T15:33:31;2.33;;;1.10;;
8825;SDS011;4449;50.872;4.714;2023-04-28T15:35:59;1.30;;;1.20;;
8825;SDS011;4449;50.872;4.714;2023-04-28T15:38:27;4.63;;;1.40;;
8825;SDS011;4449;50.872;4.714;2023-04-28T15:40:56;1.03;;;1.03;;
8825;SDS011;4449;50.872;4.714;2023-04-28T15:43:25;4.27;;;1.60;;
8825;SDS011;4449;50.872;4.714;2023-04-28T15:45:53;1.03;;;1.03;;
8825;SDS011;4449;50.872;4.714;2023-04-28T15:48:21;1.80;;;1.30;;
8825;SDS011;4449;50.872;4.714;2023-04-28T15:50:48;1.90;;;1.00;;
8825;SDS011;4449;50.872;4.714;2023-04-28T15:53:16;1.17;;;0.97;;
8825;SDS011;4449;50.872;4.714;2023-04-28T15:55:44;3.33;;;1.70;;
8825;SDS011;4449;50.872;4.714;2023-04-28T15:58:12;1.17;;;1.17;;
8825;SDS011;4449;50.872;4.714;2023-04-28T16:00:41;0.90;;;0.90;;
8825;SDS011;4449;50.872;4.714;2023-04-28T16:03:10;1.13;;;1.07;;
8825;SDS011;4449;50.872;4.714;2023-04-28T16:05:37;1.10;;;1.10;;
8825;SDS011;4449;50.872;4.714;2023-04-28T16:08:05;0.90;;;0.90;;
8825;SDS011;4449;50.872;4.714;2023-04-28T16:10:33;3.50;;;1.10;;
8825;SDS011;4449;50.872;4.714;2023-04-28T16:13:01;2.03;;;1.30;;
8825;SDS011;4449;50.872;4.714;2023-04-28T16:15:30;1.30;;;1.10;;
8825;SDS011;4449;50.872;4.714;2023-04-28T16:18:00;0.97;;;0.97;;
8825;SDS011;4449;50.872;4.714;2023-04-28T16:20:27;1.20;;;1.20;;
8825;SDS011;4449;50.872;4.714;2023-04-28T16:22:55;1.27;;;0.93;;
8825;SDS011;4449;50.872;4.714;2023-04-28T16:25:23;0.90;;;0.90;;
8825;SDS011;4449;50.872;4.714;2023-04-28T16:27:51;3.63;;;1.23;;
8825;SDS011;4449;50.872;4.714;2023-04-28T16:30:19;3.80;;;0.97;;